Hague, Virginia
Current Conditions -  °F | °C
As of 5:53 AM on Wednesday 22 Oct 2014 (Local Time) from KNUI Reporting Station
Overcast Overcast  
Wind Chill: 55°   Ceiling: 1000
Heat Index: 55°   Visibility: 10mi
Dew Point: 49°   Wind: 6mph
Humidity: 80%   Direction: 310°NW
Pressure: 29.82"   Gusts: NA
Location:  38.07°N, 76.65°W
Report Text: KNUI 220953Z AUTO 31005KT 10SM OVC010 13/09 A2982 RMK AO2 RAB0855E05 SLP097 P0000 T01280094
Loading
Personal Weather Stations






























Interactive Weather Map
Tropical Storm Tracking
New forecast layout! Learn more

10-Day Weather Forecast

Advertisements
Track Severe Weather on mobile